TimePST,TemperatureF,Dew PointF,Humidity,Sea Level PressureIn,VisibilityMPH,Wind Direction,Wind SpeedMPH,Gust SpeedMPH,PrecipitationIn,Events,Conditions,WindDirDegrees,DateUTC
12:10 AM,32.0,32.0,100,30.00,1.8,WSW,3.5,-,0.01,,Overcast,250,2012-12-23 08:10:00
12:30 AM,33.8,32.0,93,30.00,10.0,Calm,Calm,-,0.01,,Overcast,0,2012-12-23 08:30:00
12:50 AM,32.0,32.0,100,30.00,7.0,Calm,Calm,-,0.01,,Overcast,0,2012-12-23 08:50:00
1:10 AM,32.0,32.0,100,30.00,3.0,Calm,Calm,-,N/A,,Overcast,0,2012-12-23 09:10:00
1:30 AM,32.0,32.0,100,30.00,4.0,Calm,Calm,-,N/A,,Overcast,0,2012-12-23 09:30:00
1:50 AM,33.8,32.0,93,29.99,5.0,Calm,Calm,-,N/A,,Overcast,0,2012-12-23 09:50:00
2:10 AM,33.8,32.0,93,29.99,10.0,Calm,Calm,-,N/A,,Overcast,0,2012-12-23 10:10:00
2:30 AM,33.8,32.0,93,29.98,10.0,West,3.5,-,N/A,,Overcast,280,2012-12-23 10:30:00
2:50 AM,33.8,32.0,93,29.97,5.0,West,3.5,-,0.01,,Mostly Cloudy,270,2012-12-23 10:50:00
3:10 AM,33.8,32.0,93,29.95,8.0,Calm,Calm,-,0.01,,Overcast,0,2012-12-23 11:10:00
3:30 AM,32.0,32.0,100,29.95,4.0,Calm,Calm,-,0.03,,Mostly Cloudy,0,2012-12-23 11:30:00
3:50 AM,32.0,32.0,100,29.94,4.0,Calm,Calm,-,0.04,,Overcast,0,2012-12-23 11:50:00
4:10 AM,32.0,32.0,100,29.92,4.0,Calm,Calm,-,N/A,,Overcast,0,2012-12-23 12:10:00
4:30 AM,32.0,32.0,100,29.90,5.0,West,3.5,-,N/A,,Overcast,280,2012-12-23 12:30:00
4:50 AM,32.0,32.0,100,29.89,5.0,Calm,Calm,-,0.01,,Mostly Cloudy,0,2012-12-23 12:50:00
5:10 AM,32.0,32.0,100,29.88,4.0,Calm,Calm,-,0.02,,Overcast,0,2012-12-23 13:10:00
5:30 AM,32.0,32.0,100,29.86,3.0,Calm,Calm,-,0.05,,Overcast,0,2012-12-23 13:30:00
5:50 AM,32.0,32.0,100,29.86,4.0,Calm,Calm,-,0.07,,Mostly Cloudy,0,2012-12-23 13:50:00
6:10 AM,32.0,32.0,100,29.84,6.0,SW,3.5,-,0.01,,Overcast,220,2012-12-23 14:10:00
6:30 AM,32.0,32.0,100,29.86,5.0,Calm,Calm,-,0.04,,Overcast,0,2012-12-23 14:30:00
6:50 AM,33.8,33.8,100,29.84,4.0,Calm,Calm,-,0.07,,Overcast,0,2012-12-23 14:50:00
7:10 AM,33.8,32.0,93,29.84,5.0,Calm,Calm,-,0.01,,Overcast,0,2012-12-23 15:10:00
7:30 AM,33.8,32.0,93,29.82,3.0,SE,3.5,-,0.05,,Mostly Cloudy,140,2012-12-23 15:30:00
7:50 AM,32.0,32.0,100,29.84,2.0,South,3.5,-,0.14,,Mostly Cloudy,190,2012-12-23 15:50:00
8:10 AM,32.0,32.0,100,29.83,1.5,Calm,Calm,-,0.05,,Overcast,0,2012-12-23 16:10:00
8:30 AM,32.0,32.0,100,29.84,1.2,Calm,Calm,-,0.12,,Mostly Cloudy,0,2012-12-23 16:30:00
8:50 AM,32.0,32.0,100,29.84,1.5,Calm,Calm,-,0.18,,Mostly Cloudy,0,2012-12-23 16:50:00
9:10 AM,32.0,32.0,100,29.85,1.0,Calm,Calm,-,0.02,,Overcast,0,2012-12-23 17:10:00
9:30 AM,32.0,32.0,100,29.83,1.2,Calm,Calm,-,0.07,,Overcast,0,2012-12-23 17:30:00
9:50 AM,32.0,32.0,100,29.82,1.8,SSW,3.5,-,0.12,,Overcast,200,2012-12-23 17:50:00
10:10 AM,32.0,32.0,100,29.81,1.0,SSW,3.5,-,0.02,,Mostly Cloudy,210,2012-12-23 18:10:00
10:30 AM,32.0,32.0,100,29.81,1.0,West,3.5,-,0.06,,Scattered Clouds,270,2012-12-23 18:30:00
10:50 AM,32.0,32.0,100,29.80,1.0,NW,3.5,-,0.11,,Unknown,320,2012-12-23 18:50:00
11:10 AM,32.0,32.0,100,29.82,1.2,Calm,Calm,-,0.02,,Scattered Clouds,0,2012-12-23 19:10:00
11:30 AM,32.0,32.0,100,29.82,1.0,South,4.6,-,0.07,,Overcast,190,2012-12-23 19:30:00
11:50 AM,33.8,32.0,93,29.81,2.5,SSE,4.6,-,0.12,,Scattered Clouds,150,2012-12-23 19:50:00
12:10 PM,33.8,32.0,93,29.80,2.5,South,4.6,-,0.01,,Scattered Clouds,190,2012-12-23 20:10:00
12:30 PM,33.8,32.0,93,29.80,2.5,Calm,Calm,-,0.02,,Mostly Cloudy,0,2012-12-23 20:30:00
12:50 PM,33.8,32.0,93,29.81,2.0,West,3.5,-,0.02,,Mostly Cloudy,260,2012-12-23 20:50:00
1:10 PM,33.8,33.8,100,29.81,3.0,West,3.5,-,0.01,,Scattered Clouds,280,2012-12-23 21:10:00
1:30 PM,35.6,33.8,93,29.81,8.0,Calm,Calm,-,0.01,,Mostly Cloudy,0,2012-12-23 21:30:00
1:50 PM,35.6,33.8,93,29.81,10.0,NNW,4.6,-,0.01,,Overcast,340,2012-12-23 21:50:00
2:10 PM,35.6,33.8,93,29.81,10.0,Calm,Calm,-,N/A,,Overcast,0,2012-12-23 22:10:00
2:30 PM,35.6,33.8,93,29.81,10.0,Calm,Calm,-,N/A,,Overcast,0,2012-12-23 22:30:00
2:50 PM,35.6,33.8,93,29.81,10.0,Calm,Calm,-,N/A,,Overcast,0,2012-12-23 22:50:00
3:10 PM,35.6,35.6,100,29.82,10.0,Calm,Calm,-,N/A,,Overcast,0,2012-12-23 23:10:00
3:30 PM,35.6,35.6,100,29.83,10.0,Calm,Calm,-,N/A,,Unknown,0,2012-12-23 23:30:00
3:50 PM,35.6,35.6,100,29.83,6.0,Calm,Calm,-,N/A,,Unknown,0,2012-12-23 23:50:00
4:10 PM,35.6,35.6,100,29.84,5.0,Calm,Calm,-,N/A,,Overcast,0,2012-12-24 00:10:00
4:30 PM,35.6,35.6,100,29.84,9.0,Calm,Calm,-,N/A,,Overcast,0,2012-12-24 00:30:00
4:50 PM,35.6,33.8,93,29.84,7.0,Calm,Calm,-,N/A,,Overcast,0,2012-12-24 00:50:00
5:10 PM,33.8,33.8,100,29.85,5.0,West,3.5,-,N/A,,Overcast,270,2012-12-24 01:10:00
5:30 PM,35.6,33.8,93,29.85,5.0,Calm,Calm,-,N/A,,Overcast,0,2012-12-24 01:30:00
5:50 PM,33.8,33.8,100,29.86,9.0,West,3.5,-,N/A,,Overcast,270,2012-12-24 01:50:00
6:10 PM,33.8,33.8,100,29.86,4.0,Calm,Calm,-,N/A,,Overcast,0,2012-12-24 02:10:00
6:30 PM,33.8,32.0,93,29.87,5.0,Calm,Calm,-,N/A,,Overcast,0,2012-12-24 02:30:00
6:50 PM,33.8,32.0,93,29.87,4.0,Calm,Calm,-,N/A,,Overcast,0,2012-12-24 02:50:00
7:10 PM,33.8,32.0,93,29.88,1.5,WNW,4.6,-,N/A,,Overcast,290,2012-12-24 03:10:00
7:30 PM,33.8,32.0,93,29.89,3.0,Calm,Calm,-,N/A,,Overcast,0,2012-12-24 03:30:00
7:50 PM,33.8,33.8,100,29.90,7.0,Calm,Calm,-,N/A,,Overcast,0,2012-12-24 03:50:00
8:10 PM,33.8,32.0,93,29.90,5.0,Calm,Calm,-,N/A,,Overcast,0,2012-12-24 04:10:00
8:30 PM,33.8,32.0,93,29.91,8.0,West,3.5,-,N/A,,Overcast,270,2012-12-24 04:30:00
8:50 PM,32.0,32.0,100,29.91,6.0,Calm,Calm,-,N/A,,Overcast,0,2012-12-24 04:50:00
9:10 PM,33.8,33.8,100,29.92,8.0,West,4.6,-,N/A,,Overcast,260,2012-12-24 05:10:00
9:30 PM,33.8,32.0,93,29.93,5.0,WNW,3.5,-,N/A,,Overcast,300,2012-12-24 05:30:00
9:50 PM,32.0,32.0,100,29.94,5.0,Calm,Calm,-,N/A,,Overcast,0,2012-12-24 05:50:00
10:10 PM,33.8,32.0,93,29.95,7.0,Calm,Calm,-,N/A,,Overcast,0,2012-12-24 06:10:00
10:30 PM,32.0,32.0,100,29.96,4.0,West,3.5,-,N/A,,Overcast,260,2012-12-24 06:30:00
10:50 PM,32.0,32.0,100,29.97,6.0,WNW,3.5,-,N/A,,Overcast,290,2012-12-24 06:50:00
11:10 PM,32.0,32.0,100,29.97,2.5,Calm,Calm,-,N/A,,Overcast,0,2012-12-24 07:10:00
11:30 PM,33.8,33.8,100,29.98,9.0,West,5.8,-,N/A,,Overcast,280,2012-12-24 07:30:00
11:50 PM,32.0,32.0,100,29.99,5.0,Calm,Calm,-,N/A,,Overcast,0,2012-12-24 07:50:00